createdAt,value
2023-04-21T00:02:01.323Z,99.90
2023-04-21T00:04:29.073Z,99.90
2023-04-21T00:06:56.223Z,99.90
2023-04-21T00:09:23.194Z,99.90
2023-04-21T00:11:50.240Z,99.90
2023-04-21T00:14:17.773Z,99.90
2023-04-21T00:16:44.832Z,99.90
2023-04-21T00:19:13.789Z,99.90
2023-04-21T00:21:40.891Z,99.90
2023-04-21T00:24:08.878Z,99.90
2023-04-21T00:26:35.823Z,99.90
2023-04-21T00:29:03.912Z,99.90
2023-04-21T00:31:31.686Z,99.90
2023-04-21T00:33:59.065Z,99.90
2023-04-21T00:36:28.254Z,99.90
2023-04-21T00:38:55.609Z,99.90
2023-04-21T00:41:23.745Z,99.90
2023-04-21T00:44:10.520Z,99.90
2023-04-21T00:46:38.649Z,99.90
2023-04-21T00:49:08.462Z,99.90
2023-04-21T00:51:37.286Z,99.90
2023-04-21T00:54:07.045Z,99.90
2023-04-21T00:56:36.721Z,99.90
2023-04-21T00:59:04.315Z,99.90
2023-04-21T01:01:34.335Z,99.90
2023-04-21T01:04:03.900Z,99.90
2023-04-21T01:06:34.758Z,99.90
2023-04-21T01:09:05.194Z,99.90
2023-04-21T01:11:32.677Z,99.90
2023-04-21T01:14:00.949Z,99.90
2023-04-21T01:16:29.622Z,99.90
2023-04-21T01:18:57.197Z,99.90
2023-04-21T01:21:24.482Z,99.90
2023-04-21T01:23:51.904Z,99.90
2023-04-21T01:26:23.644Z,99.90
2023-04-21T01:28:50.838Z,99.90
2023-04-21T01:31:18.804Z,99.90
2023-04-21T01:33:46.015Z,99.90
2023-04-21T01:36:13.165Z,99.90
2023-04-21T01:38:42.512Z,99.90
2023-04-21T01:41:10.962Z,99.90
2023-04-21T01:43:38.719Z,99.90
2023-04-21T01:46:06.983Z,99.90
2023-04-21T01:48:34.291Z,99.90
2023-04-21T01:51:01.514Z,99.90
2023-04-21T01:53:28.665Z,99.90
2023-04-21T01:55:55.865Z,99.90
2023-04-21T01:58:23.027Z,99.90
2023-04-21T02:00:51.562Z,99.90
2023-04-21T02:03:18.785Z,99.90
2023-04-21T02:05:46.483Z,99.90
2023-04-21T02:08:13.475Z,99.90
2023-04-21T02:10:41.449Z,99.90
2023-04-21T02:13:11.946Z,99.90
2023-04-21T02:15:38.970Z,99.90
2023-04-21T02:18:08.302Z,99.90
2023-04-21T02:20:35.444Z,99.90
2023-04-21T02:23:02.494Z,99.90
2023-04-21T02:25:30.045Z,99.90
2023-04-21T02:27:57.168Z,99.90
2023-04-21T02:30:27.607Z,99.90
2023-04-21T02:32:54.856Z,99.90
2023-04-21T02:35:22.017Z,99.90
2023-04-21T02:37:50.960Z,99.90
2023-04-21T02:40:18.178Z,99.90
2023-04-21T02:42:45.406Z,99.90
2023-04-21T02:45:12.536Z,99.90
2023-04-21T02:47:39.540Z,99.90
2023-04-21T02:50:07.184Z,99.90
2023-04-21T02:52:40.464Z,99.90
2023-04-21T02:55:08.050Z,99.90
2023-04-21T02:57:35.077Z,99.90
2023-04-21T03:00:02.097Z,99.90
2023-04-21T03:02:29.346Z,99.90
2023-04-21T03:04:56.696Z,99.90
2023-04-21T03:07:23.767Z,99.90
2023-04-21T03:09:50.756Z,99.90
2023-04-21T03:12:17.771Z,99.90
2023-04-21T03:14:44.843Z,99.90
2023-04-21T03:17:11.880Z,99.90
2023-04-21T03:19:38.966Z,99.90
2023-04-21T03:22:06.599Z,99.90
2023-04-21T03:24:33.749Z,99.90
2023-04-21T03:27:01.779Z,99.90
2023-04-21T03:29:28.837Z,99.90
2023-04-21T03:31:56.180Z,99.90
2023-04-21T03:34:23.779Z,99.90
2023-04-21T03:36:50.831Z,99.90
2023-04-21T03:39:20.151Z,99.90
2023-04-21T03:41:48.947Z,99.90
2023-04-21T03:44:16.180Z,99.90
2023-04-21T03:46:43.212Z,99.90
2023-04-21T03:49:10.579Z,99.90
2023-04-21T03:51:37.543Z,99.90
2023-04-21T03:54:04.588Z,99.90
2023-04-21T03:56:31.584Z,99.90
2023-04-21T03:58:58.647Z,99.90
2023-04-21T04:01:25.551Z,99.90
2023-04-21T04:03:52.800Z,99.90
2023-04-21T04:06:19.917Z,99.90
2023-04-21T04:08:47.011Z,99.90
2023-04-21T04:11:13.951Z,99.90
2023-04-21T04:13:41.071Z,99.90
2023-04-21T04:16:08.329Z,99.90
2023-04-21T04:18:35.500Z,99.90
2023-04-21T04:21:09.114Z,99.90
2023-04-21T04:23:36.586Z,99.90
2023-04-21T04:26:05.572Z,99.90
2023-04-21T04:28:33.648Z,99.90
2023-04-21T04:31:01.176Z,99.90
2023-04-21T04:33:28.156Z,99.90
2023-04-21T04:35:55.300Z,99.90
2023-04-21T04:38:23.079Z,99.90
2023-04-21T04:40:58.905Z,99.90
2023-04-21T04:43:25.937Z,99.90
2023-04-21T04:45:53.342Z,99.90
2023-04-21T04:48:20.894Z,99.90
2023-04-21T04:50:47.861Z,99.90
2023-04-21T04:53:15.277Z,99.90
2023-04-21T04:55:42.266Z,99.90
2023-04-21T04:58:09.212Z,99.90
2023-04-21T05:00:37.654Z,99.90
2023-04-21T05:03:05.394Z,99.90
2023-04-21T05:05:32.561Z,99.90
2023-04-21T05:07:59.696Z,99.90
2023-04-21T05:10:26.660Z,99.90
2023-04-21T05:12:53.709Z,99.90
2023-04-21T05:15:22.523Z,99.90
2023-04-21T05:17:49.576Z,99.90
2023-04-21T05:20:16.704Z,99.90
2023-04-21T05:22:43.839Z,99.90
2023-04-21T05:25:15.889Z,99.90
2023-04-21T05:27:43.563Z,99.90
2023-04-21T05:30:11.373Z,99.90
2023-04-21T05:32:38.412Z,99.90
2023-04-21T05:35:06.266Z,99.90
2023-04-21T05:37:33.332Z,99.90
2023-04-21T05:40:00.639Z,99.90
2023-04-21T05:42:27.659Z,99.90
2023-04-21T05:44:55.281Z,99.90
2023-04-21T05:47:22.329Z,99.90
2023-04-21T05:49:53.846Z,99.90
2023-04-21T05:52:23.660Z,99.90
2023-04-21T05:54:50.752Z,99.90
2023-04-21T05:57:17.851Z,99.90
2023-04-21T05:59:44.924Z,99.90
2023-04-21T06:02:12.240Z,99.90
2023-04-21T06:04:39.533Z,99.90
2023-04-21T06:07:09.044Z,99.90
2023-04-21T06:09:36.767Z,99.90
2023-04-21T06:12:04.308Z,99.90
2023-04-21T06:14:31.560Z,99.90
2023-04-21T06:16:58.733Z,99.90
2023-04-21T06:19:25.828Z,99.90
2023-04-21T06:21:52.714Z,99.90
2023-04-21T06:24:25.251Z,99.90
2023-04-21T06:26:53.296Z,99.90
2023-04-21T06:29:20.889Z,99.90
2023-04-21T06:31:48.098Z,99.90
2023-04-21T06:34:15.741Z,99.90
2023-04-21T06:36:42.666Z,99.90
2023-04-21T06:39:09.594Z,99.90
2023-04-21T06:41:36.847Z,99.90
2023-04-21T06:44:03.786Z,99.90
2023-04-21T06:46:31.357Z,99.90
2023-04-21T06:48:58.478Z,99.90
2023-04-21T06:51:25.606Z,99.90
2023-04-21T06:53:52.661Z,99.90
2023-04-21T06:56:19.604Z,99.90
2023-04-21T06:58:47.024Z,99.90
2023-04-21T07:01:14.004Z,99.90
2023-04-21T07:03:41.377Z,99.90
2023-04-21T07:06:08.412Z,99.90
2023-04-21T07:08:35.676Z,99.90
2023-04-21T07:11:02.722Z,99.90
2023-04-21T07:13:29.958Z,99.90
2023-04-21T07:15:57.100Z,99.90
2023-04-21T07:18:24.215Z,99.90
2023-04-21T07:20:51.444Z,99.90
2023-04-21T07:23:19.204Z,99.90
2023-04-21T07:25:46.139Z,99.90
2023-04-21T07:28:16.069Z,99.90
2023-04-21T07:30:43.084Z,99.90
2023-04-21T07:33:10.250Z,99.90
2023-04-21T07:35:37.226Z,99.90
2023-04-21T07:38:04.294Z,99.90
2023-04-21T07:40:31.812Z,99.90
2023-04-21T07:42:58.844Z,99.90
2023-04-21T07:45:26.453Z,99.90
2023-04-21T07:47:53.732Z,99.90
2023-04-21T07:50:20.911Z,99.90
2023-04-21T07:52:48.153Z,99.90
2023-04-21T07:55:15.174Z,99.90
2023-04-21T07:57:42.389Z,99.90
2023-04-21T08:00:10.852Z,99.90
2023-04-21T08:02:40.940Z,99.90
2023-04-21T08:05:08.728Z,99.90
2023-04-21T08:07:36.510Z,99.90
2023-04-21T08:10:04.257Z,99.90
2023-04-21T08:12:31.139Z,99.90
2023-04-21T08:14:58.191Z,99.90
2023-04-21T08:17:25.409Z,99.90
2023-04-21T08:19:52.467Z,99.90
2023-04-21T08:22:19.419Z,99.90
2023-04-21T08:24:46.444Z,99.90
2023-04-21T08:27:13.401Z,99.90
2023-04-21T08:29:40.421Z,99.90
2023-04-21T08:32:07.590Z,99.90
2023-04-21T08:34:35.201Z,99.90
2023-04-21T08:37:02.233Z,99.90
2023-04-21T08:39:29.604Z,99.90
2023-04-21T08:41:58.916Z,99.90
2023-04-21T08:44:26.605Z,99.90
2023-04-21T08:46:56.483Z,99.90
2023-04-21T08:49:24.440Z,99.90
2023-04-21T08:51:51.375Z,99.90
2023-04-21T08:54:18.697Z,99.90
2023-04-21T08:56:47.588Z,99.90
2023-04-21T08:59:14.583Z,99.90
2023-04-21T09:02:19.893Z,99.90
2023-04-21T09:04:51.891Z,99.90
2023-04-21T09:07:36.135Z,99.90
2023-04-21T09:10:06.144Z,99.90
2023-04-21T09:12:33.196Z,99.90
2023-04-21T09:15:05.582Z,99.90
2023-04-21T09:17:33.717Z,99.90
2023-04-21T09:20:18.931Z,99.90
2023-04-21T09:22:49.559Z,99.90
2023-04-21T09:25:19.781Z,99.90
2023-04-21T09:27:47.863Z,99.90
2023-04-21T09:30:20.003Z,99.90
2023-04-21T09:32:47.186Z,99.90
2023-04-21T09:35:14.587Z,99.90
2023-04-21T09:37:44.565Z,99.90
2023-04-21T09:40:18.353Z,99.90
2023-04-21T09:42:46.010Z,99.90
2023-04-21T09:45:36.645Z,99.90
2023-04-21T09:48:09.582Z,99.90
2023-04-21T09:53:16.537Z,99.90
2023-04-21T09:55:51.611Z,99.90
2023-04-21T09:58:22.460Z,99.90
2023-04-21T10:00:51.332Z,99.90
2023-04-21T10:03:21.006Z,99.90
2023-04-21T10:05:48.098Z,99.90
2023-04-21T10:08:17.160Z,99.90
2023-04-21T10:10:46.684Z,99.90
2023-04-21T10:13:18.576Z,99.90
2023-04-21T10:15:45.549Z,99.90
2023-04-21T10:18:19.873Z,99.90
2023-04-21T10:21:04.415Z,99.90
2023-04-21T10:23:44.152Z,99.90
2023-04-21T10:26:20.367Z,99.90
2023-04-21T10:28:57.549Z,99.90
2023-04-21T10:31:53.645Z,99.90
2023-04-21T10:34:24.794Z,99.90
2023-04-21T10:36:54.706Z,99.90
2023-04-21T10:39:30.355Z,99.90
2023-04-21T10:42:19.694Z,99.90
2023-04-21T10:44:58.622Z,99.90
2023-04-21T10:47:31.393Z,99.90
2023-04-21T10:50:00.526Z,99.90
2023-04-21T10:52:36.101Z,99.90
2023-04-21T10:55:08.517Z,99.90
2023-04-21T10:57:38.670Z,99.90
2023-04-21T11:00:07.126Z,99.90
2023-04-21T11:02:38.671Z,99.90
2023-04-21T11:05:10.026Z,99.90
2023-04-21T11:07:37.451Z,99.90
2023-04-21T11:10:08.070Z,99.90
2023-04-21T11:12:38.943Z,99.90
2023-04-21T11:15:14.333Z,99.90
2023-04-21T11:17:43.703Z,99.90
2023-04-21T11:20:11.114Z,99.90
2023-04-21T11:22:38.763Z,99.90
2023-04-21T11:25:16.209Z,99.90
2023-04-21T11:27:53.643Z,99.90
2023-04-21T11:30:20.977Z,99.90
2023-04-21T11:32:56.140Z,99.90
2023-04-21T11:35:23.689Z,99.90
2023-04-21T11:37:52.136Z,99.90
2023-04-21T11:40:19.514Z,99.90
2023-04-21T11:42:46.635Z,99.90
2023-04-21T11:45:21.889Z,99.90
2023-04-21T11:47:49.758Z,99.90
2023-04-21T11:50:34.385Z,99.90
2023-04-21T11:53:03.559Z,99.90
2023-04-21T11:55:30.640Z,99.90
2023-04-21T11:57:57.848Z,99.90
2023-04-21T12:00:31.315Z,99.90
2023-04-21T12:02:58.469Z,99.90
2023-04-21T12:05:25.972Z,99.90
2023-04-21T12:07:56.471Z,99.90
2023-04-21T12:10:23.702Z,99.90
2023-04-21T12:12:51.768Z,99.90
2023-04-21T12:15:22.782Z,99.90
2023-04-21T12:17:54.520Z,99.90
2023-04-21T12:20:28.310Z,99.90
2023-04-21T12:22:56.430Z,99.90
2023-04-21T12:25:24.579Z,99.90
2023-04-21T12:27:59.293Z,98.40
2023-04-21T12:30:26.333Z,98.40
2023-04-21T12:32:55.763Z,97.80
2023-04-21T12:35:23.450Z,99.30
2023-04-21T12:37:50.406Z,98.60
2023-04-21T12:40:18.307Z,99.90
2023-04-21T12:42:45.319Z,98.20
2023-04-21T12:45:13.417Z,96.60
2023-04-21T12:47:42.989Z,95.00
2023-04-21T12:50:12.573Z,94.30
2023-04-21T12:52:39.586Z,94.90
2023-04-21T12:55:06.775Z,96.00
2023-04-21T12:57:34.047Z,96.30
2023-04-21T13:00:01.097Z,96.50
2023-04-21T13:02:28.432Z,97.10
2023-04-21T13:04:55.512Z,97.50
2023-04-21T13:07:26.647Z,98.10
2023-04-21T13:09:53.738Z,99.10
2023-04-21T13:12:21.307Z,98.70
2023-04-21T13:14:48.287Z,96.30
2023-04-21T13:17:16.390Z,96.10
2023-04-21T13:19:43.511Z,95.50
2023-04-21T13:22:10.480Z,94.30
2023-04-21T13:24:37.531Z,93.80
2023-04-21T13:27:13.666Z,94.30
2023-04-21T13:29:41.317Z,95.30
2023-04-21T13:32:08.901Z,96.40
2023-04-21T13:34:36.220Z,95.80
2023-04-21T13:37:03.659Z,96.60
2023-04-21T13:39:30.974Z,97.60
2023-04-21T13:41:58.208Z,95.80
2023-04-21T13:44:25.505Z,95.80
2023-04-21T13:46:53.806Z,92.10
2023-04-21T13:49:21.088Z,93.00
2023-04-21T13:51:48.107Z,89.70
2023-04-21T13:54:15.132Z,92.20
2023-04-21T13:56:42.173Z,90.70
2023-04-21T13:59:10.849Z,91.00
2023-04-21T14:01:37.967Z,90.60
2023-04-21T14:04:05.056Z,92.10
2023-04-21T14:06:33.091Z,92.30
2023-04-21T14:09:01.264Z,93.40
2023-04-21T14:11:28.593Z,93.60
2023-04-21T14:14:09.069Z,92.90
2023-04-21T14:16:37.986Z,93.00
2023-04-21T14:19:05.085Z,93.50
2023-04-21T14:21:32.678Z,94.60
2023-04-21T14:23:59.809Z,93.20
2023-04-21T14:26:27.033Z,91.60
2023-04-21T14:28:54.056Z,88.60
2023-04-21T14:31:22.273Z,82.30
2023-04-21T14:33:49.541Z,84.40
2023-04-21T14:36:16.577Z,87.70
2023-04-21T14:38:43.728Z,83.80
2023-04-21T14:41:10.701Z,81.80
2023-04-21T14:43:37.790Z,78.60
2023-04-21T14:46:05.209Z,79.30
2023-04-21T14:48:32.652Z,79.00
2023-04-21T14:50:59.782Z,77.30
2023-04-21T14:53:27.251Z,76.70
2023-04-21T14:55:54.872Z,76.90
2023-04-21T14:58:22.006Z,75.50
2023-04-21T15:00:49.053Z,75.80
2023-04-21T15:03:16.488Z,74.40
2023-04-21T15:05:43.597Z,75.00
2023-04-21T15:08:11.891Z,77.10
2023-04-21T15:10:38.909Z,75.50
2023-04-21T15:13:06.118Z,71.70
2023-04-21T15:15:33.119Z,71.80
2023-04-21T15:18:00.186Z,72.60
2023-04-21T15:20:40.739Z,77.10
2023-04-21T15:23:11.966Z,76.70
2023-04-21T15:25:39.911Z,77.40
2023-04-21T15:28:07.631Z,77.30
2023-04-21T15:30:34.669Z,80.20
2023-04-21T15:33:01.769Z,82.40
2023-04-21T15:35:28.760Z,79.40
2023-04-21T15:37:55.807Z,78.30
2023-04-21T15:40:22.886Z,77.20
2023-04-21T15:42:49.892Z,78.20
2023-04-21T15:45:18.204Z,79.10
2023-04-21T15:47:45.557Z,77.90
2023-04-21T15:50:13.720Z,78.50
2023-04-21T15:52:43.373Z,80.60
2023-04-21T15:55:13.713Z,79.50
2023-04-21T15:57:40.860Z,79.20
2023-04-21T16:00:10.331Z,80.50
2023-04-21T16:02:37.784Z,79.20
2023-04-21T16:05:05.670Z,80.20
2023-04-21T16:07:33.040Z,79.50
2023-04-21T16:10:00.350Z,80.60
2023-04-21T16:12:28.164Z,80.90
2023-04-21T16:14:59.491Z,84.20
2023-04-21T16:17:36.631Z,91.40
2023-04-21T16:20:05.757Z,91.20
2023-04-21T16:22:33.115Z,92.70
2023-04-21T16:25:00.907Z,92.50
2023-04-21T16:27:28.090Z,93.90
2023-04-21T16:29:55.166Z,94.40
2023-04-21T16:32:22.329Z,94.00
2023-04-21T16:34:49.362Z,92.80
2023-04-21T16:37:16.514Z,93.30
2023-04-21T16:39:43.587Z,92.30
2023-04-21T16:42:10.739Z,92.00
2023-04-21T16:44:37.940Z,91.80
2023-04-21T16:47:05.974Z,91.70
2023-04-21T16:49:32.989Z,91.30
2023-04-21T16:52:00.541Z,91.40
2023-04-21T16:54:27.540Z,92.00
2023-04-21T16:56:54.664Z,91.90
2023-04-21T16:59:23.670Z,91.80
2023-04-21T17:01:50.788Z,91.80
2023-04-21T17:04:17.851Z,91.80
2023-04-21T17:06:44.882Z,91.40
2023-04-21T17:09:11.877Z,91.00
2023-04-21T17:11:40.182Z,91.00
2023-04-21T17:14:07.239Z,91.50
2023-04-21T17:16:34.561Z,91.10
2023-04-21T17:19:02.468Z,90.40
2023-04-21T17:21:29.507Z,90.30
2023-04-21T17:23:56.534Z,90.60
2023-04-21T17:26:23.955Z,90.20
2023-04-21T17:28:51.479Z,87.60
2023-04-21T17:31:18.792Z,86.70
2023-04-21T17:33:45.921Z,86.30
2023-04-21T17:36:13.353Z,85.30
2023-04-21T17:38:42.586Z,84.40
2023-04-21T17:41:09.816Z,84.40
2023-04-21T17:43:37.233Z,84.50
2023-04-21T17:46:06.402Z,82.80
2023-04-21T17:48:34.000Z,80.90
2023-04-21T17:51:01.004Z,80.10
2023-04-21T17:53:27.984Z,81.00
2023-04-21T17:55:54.953Z,83.10
2023-04-21T17:58:22.712Z,83.70
2023-04-21T18:00:49.598Z,85.70
2023-04-21T18:03:16.870Z,87.80
2023-04-21T18:05:44.650Z,87.60
2023-04-21T18:08:11.946Z,87.50
2023-04-21T18:10:38.951Z,89.00
2023-04-21T18:13:06.686Z,89.70
2023-04-21T18:15:33.729Z,90.10
2023-04-21T18:18:00.787Z,90.40
2023-04-21T18:20:28.063Z,90.80
2023-04-21T18:22:55.259Z,91.40
2023-04-21T18:25:38.397Z,92.10
2023-04-21T18:28:10.978Z,92.40
2023-04-21T18:30:39.460Z,92.80
2023-04-21T18:33:06.871Z,93.20
2023-04-21T18:35:34.087Z,93.80
2023-04-21T18:38:01.301Z,94.10
2023-04-21T18:40:28.350Z,94.70
2023-04-21T18:42:56.875Z,95.10
2023-04-21T18:45:23.897Z,95.70
2023-04-21T18:47:50.934Z,96.80
2023-04-21T18:50:18.101Z,97.60
2023-04-21T18:52:45.011Z,98.30
2023-04-21T18:55:12.181Z,98.80
2023-04-21T18:57:39.231Z,99.20
2023-04-21T19:00:07.627Z,99.50
2023-04-21T19:02:34.612Z,99.90
2023-04-21T19:05:01.940Z,99.90
2023-04-21T19:07:28.891Z,99.90
2023-04-21T19:09:55.839Z,99.90
2023-04-21T19:12:23.179Z,99.90
2023-04-21T19:14:51.485Z,99.90
2023-04-21T19:17:18.742Z,99.90
2023-04-21T19:19:45.931Z,99.90
2023-04-21T19:22:13.171Z,99.90
2023-04-21T19:24:40.398Z,99.90
2023-04-21T19:27:07.501Z,99.90
2023-04-21T19:29:36.546Z,99.90
2023-04-21T19:32:03.902Z,99.90
2023-04-21T19:34:30.868Z,99.90
2023-04-21T19:36:57.930Z,99.90
2023-04-21T19:39:25.046Z,99.90
2023-04-21T19:41:52.054Z,99.90
2023-04-21T19:44:19.065Z,99.90
2023-04-21T19:46:46.145Z,99.90
2023-04-21T19:49:14.188Z,99.90
2023-04-21T19:51:42.238Z,99.90
2023-04-21T19:54:12.493Z,99.90
2023-04-21T19:56:40.756Z,99.90
2023-04-21T19:59:08.610Z,99.90
2023-04-21T20:01:41.546Z,99.90
2023-04-21T20:04:11.920Z,99.90
2023-04-21T20:06:39.976Z,99.90
2023-04-21T20:09:07.118Z,99.90
2023-04-21T20:11:34.419Z,99.90
2023-04-21T20:14:04.196Z,99.90
2023-04-21T20:16:33.005Z,99.90
2023-04-21T20:19:05.722Z,99.90
2023-04-21T20:22:21.250Z,99.90
2023-04-21T20:25:19.276Z,99.90
2023-04-21T20:27:56.446Z,99.90
2023-04-21T20:30:25.180Z,99.90
2023-04-21T20:32:52.729Z,99.90
2023-04-21T20:35:19.918Z,99.90
2023-04-21T20:37:47.431Z,99.90
2023-04-21T20:40:14.907Z,99.90
2023-04-21T20:42:45.155Z,99.90
2023-04-21T20:45:17.430Z,99.90
2023-04-21T20:47:45.247Z,99.90
2023-04-21T20:50:12.740Z,99.90
2023-04-21T20:52:39.826Z,99.90
2023-04-21T20:55:07.342Z,99.90
2023-04-21T20:57:34.903Z,99.90
2023-04-21T21:00:02.281Z,99.90
2023-04-21T21:02:30.160Z,99.90
2023-04-21T21:04:57.500Z,99.90
2023-04-21T21:07:24.706Z,99.90
2023-04-21T21:09:51.913Z,99.90
2023-04-21T21:12:18.926Z,99.90
2023-04-21T21:14:45.974Z,99.90
2023-04-21T21:17:16.393Z,99.90
2023-04-21T21:19:43.776Z,99.90
2023-04-21T21:22:10.759Z,99.90
2023-04-21T21:24:37.785Z,99.90
2023-04-21T21:27:04.946Z,99.90
2023-04-21T21:29:32.124Z,99.90
2023-04-21T21:31:59.220Z,99.90
2023-04-21T21:34:26.495Z,99.90
2023-04-21T21:36:53.703Z,99.90
2023-04-21T21:39:21.019Z,99.90
2023-04-21T21:41:48.022Z,99.90
2023-04-21T21:44:15.238Z,99.90
2023-04-21T21:46:42.867Z,99.90
2023-04-21T21:49:11.097Z,99.90
2023-04-21T21:51:38.212Z,99.90
2023-04-21T21:54:06.704Z,99.90
2023-04-21T21:56:33.950Z,99.90
2023-04-21T21:59:01.099Z,99.90
2023-04-21T22:01:28.212Z,99.90
2023-04-21T22:03:55.497Z,99.90
2023-04-21T22:06:24.240Z,99.90
2023-04-21T22:08:52.257Z,99.90
2023-04-21T22:11:19.913Z,99.90
2023-04-21T22:13:47.380Z,99.90
2023-04-21T22:16:14.435Z,99.90
2023-04-21T22:18:41.676Z,99.90
2023-04-21T22:21:08.942Z,99.90
2023-04-21T22:23:36.607Z,99.90
2023-04-21T22:26:03.667Z,99.90
2023-04-21T22:28:30.912Z,99.90
2023-04-21T22:30:58.094Z,99.90
2023-04-21T22:33:25.296Z,99.90
2023-04-21T22:35:52.279Z,99.90
2023-04-21T22:38:19.361Z,99.90
2023-04-21T22:40:46.966Z,99.90
2023-04-21T22:43:14.144Z,99.90
2023-04-21T22:45:42.917Z,99.90
2023-04-21T22:48:10.177Z,99.90
2023-04-21T22:50:37.273Z,99.90
2023-04-21T22:53:04.507Z,99.90
2023-04-21T22:55:32.039Z,99.90
2023-04-21T22:58:00.056Z,99.90
2023-04-21T23:00:27.376Z,99.90
2023-04-21T23:02:54.943Z,99.90
2023-04-21T23:05:22.220Z,99.90
2023-04-21T23:07:49.305Z,99.90
2023-04-21T23:10:16.693Z,99.90
2023-04-21T23:12:44.113Z,99.90
2023-04-21T23:15:11.694Z,99.90
2023-04-21T23:17:39.075Z,99.90
2023-04-21T23:20:07.400Z,99.90
2023-04-21T23:22:34.553Z,99.90
2023-04-21T23:25:01.746Z,99.90
2023-04-21T23:27:28.902Z,99.90
2023-04-21T23:29:56.313Z,99.90
2023-04-21T23:32:23.546Z,99.90
2023-04-21T23:34:50.753Z,99.90
2023-04-21T23:37:17.866Z,99.90
2023-04-21T23:39:45.352Z,99.90
2023-04-21T23:42:12.629Z,99.90
2023-04-21T23:44:40.698Z,99.90
2023-04-21T23:47:08.267Z,99.90
2023-04-21T23:49:36.013Z,99.90
2023-04-21T23:52:03.651Z,99.90
2023-04-21T23:54:30.901Z,99.90
2023-04-21T23:56:58.714Z,99.90
2023-04-21T23:59:26.133Z,99.90
